sensor_id;sensor_type;location;lat;lon;timestamp;temperature;humidity
51908;DHT22;39320;53.214;6.556;2023-09-07T00:01:30;24.20;99.90
51908;DHT22;39320;53.214;6.556;2023-09-07T00:03:56;24.20;99.90
51908;DHT22;39320;53.214;6.556;2023-09-07T00:06:21;24.20;99.90
51908;DHT22;39320;53.214;6.556;2023-09-07T00:08:47;24.20;99.90
51908;DHT22;39320;53.214;6.556;2023-09-07T00:11:13;24.20;99.90
51908;DHT22;39320;53.214;6.556;2023-09-07T00:13:39;24.20;99.90
51908;DHT22;39320;53.214;6.556;2023-09-07T00:16:05;24.20;99.90
51908;DHT22;39320;53.214;6.556;2023-09-07T00:18:31;24.10;99.90
51908;DHT22;39320;53.214;6.556;2023-09-07T00:20:58;24.10;99.90
51908;DHT22;39320;53.214;6.556;2023-09-07T00:23:24;24.10;99.90
51908;DHT22;39320;53.214;6.556;2023-09-07T00:25:50;24.10;99.90
51908;DHT22;39320;53.214;6.556;2023-09-07T00:28:15;24.10;99.90
51908;DHT22;39320;53.214;6.556;2023-09-07T00:30:41;24.10;99.90
51908;DHT22;39320;53.214;6.556;2023-09-07T00:33:07;24.00;99.90
51908;DHT22;39320;53.214;6.556;2023-09-07T00:35:33;24.00;99.90
51908;DHT22;39320;53.214;6.556;2023-09-07T00:38:00;24.00;99.90
51908;DHT22;39320;53.214;6.556;2023-09-07T00:40:26;24.00;99.90
51908;DHT22;39320;53.214;6.556;2023-09-07T00:42:52;24.00;99.90
51908;DHT22;39320;53.214;6.556;2023-09-07T00:45:18;24.00;99.90
51908;DHT22;39320;53.214;6.556;2023-09-07T00:47:44;24.00;99.90
51908;DHT22;39320;53.214;6.556;2023-09-07T00:50:10;23.90;99.90
51908;DHT22;39320;53.214;6.556;2023-09-07T00:52:42;23.90;99.90
51908;DHT22;39320;53.214;6.556;2023-09-07T00:55:08;23.80;99.90
51908;DHT22;39320;53.214;6.556;2023-09-07T00:57:35;23.80;99.90
51908;DHT22;39320;53.214;6.556;2023-09-07T01:00:03;23.80;99.90
51908;DHT22;39320;53.214;6.556;2023-09-07T01:02:31;23.70;99.90
51908;DHT22;39320;53.214;6.556;2023-09-07T01:04:57;23.70;99.90
51908;DHT22;39320;53.214;6.556;2023-09-07T01:08:01;23.70;99.90
51908;DHT22;39320;53.214;6.556;2023-09-07T01:10:28;23.70;99.90
51908;DHT22;39320;53.214;6.556;2023-09-07T01:12:54;23.60;99.90
51908;DHT22;39320;53.214;6.556;2023-09-07T01:15:19;23.60;99.90
51908;DHT22;39320;53.214;6.556;2023-09-07T01:17:45;23.50;99.90
51908;DHT22;39320;53.214;6.556;2023-09-07T01:20:13;23.60;99.90
51908;DHT22;39320;53.214;6.556;2023-09-07T01:22:39;23.50;99.90
51908;DHT22;39320;53.214;6.556;2023-09-07T01:25:06;23.50;99.90
51908;DHT22;39320;53.214;6.556;2023-09-07T01:27:33;23.50;99.90
51908;DHT22;39320;53.214;6.556;2023-09-07T01:29:59;23.50;99.90
51908;DHT22;39320;53.214;6.556;2023-09-07T01:32:25;23.40;99.90
51908;DHT22;39320;53.214;6.556;2023-09-07T01:34:55;23.40;99.90
51908;DHT22;39320;53.214;6.556;2023-09-07T01:37:22;23.40;99.90
51908;DHT22;39320;53.214;6.556;2023-09-07T01:39:47;23.50;99.90
51908;DHT22;39320;53.214;6.556;2023-09-07T01:42:14;23.40;99.90
51908;DHT22;39320;53.214;6.556;2023-09-07T01:44:40;23.40;99.90
51908;DHT22;39320;53.214;6.556;2023-09-07T01:47:06;23.40;99.90
51908;DHT22;39320;53.214;6.556;2023-09-07T01:49:31;23.30;99.90
51908;DHT22;39320;53.214;6.556;2023-09-07T01:51:57;23.40;99.90
51908;DHT22;39320;53.214;6.556;2023-09-07T01:54:23;23.40;99.90
51908;DHT22;39320;53.214;6.556;2023-09-07T01:56:48;23.30;99.90
51908;DHT22;39320;53.214;6.556;2023-09-07T01:59:14;23.30;99.90
51908;DHT22;39320;53.214;6.556;2023-09-07T02:01:40;23.20;99.90
51908;DHT22;39320;53.214;6.556;2023-09-07T02:04:06;23.20;99.90
51908;DHT22;39320;53.214;6.556;2023-09-07T02:06:32;23.20;99.90
51908;DHT22;39320;53.214;6.556;2023-09-07T02:08:58;23.20;99.90
51908;DHT22;39320;53.214;6.556;2023-09-07T02:11:23;23.20;99.90
51908;DHT22;39320;53.214;6.556;2023-09-07T02:13:49;23.20;99.90
51908;DHT22;39320;53.214;6.556;2023-09-07T02:16:15;23.10;99.90
51908;DHT22;39320;53.214;6.556;2023-09-07T02:18:42;23.10;99.90
51908;DHT22;39320;53.214;6.556;2023-09-07T02:21:11;23.10;99.90
51908;DHT22;39320;53.214;6.556;2023-09-07T02:23:37;23.10;99.90
51908;DHT22;39320;53.214;6.556;2023-09-07T02:26:03;23.10;99.90
51908;DHT22;39320;53.214;6.556;2023-09-07T02:28:30;23.00;99.90
51908;DHT22;39320;53.214;6.556;2023-09-07T02:31:02;23.00;99.90
51908;DHT22;39320;53.214;6.556;2023-09-07T02:33:28;23.00;99.90
51908;DHT22;39320;53.214;6.556;2023-09-07T02:35:54;23.00;99.90
51908;DHT22;39320;53.214;6.556;2023-09-07T02:38:20;22.90;99.90
51908;DHT22;39320;53.214;6.556;2023-09-07T02:40:46;22.90;99.90
51908;DHT22;39320;53.214;6.556;2023-09-07T02:43:12;22.80;99.90
51908;DHT22;39320;53.214;6.556;2023-09-07T02:45:38;22.80;99.90
51908;DHT22;39320;53.214;6.556;2023-09-07T02:48:05;22.70;99.90
51908;DHT22;39320;53.214;6.556;2023-09-07T02:50:33;22.60;99.90
51908;DHT22;39320;53.214;6.556;2023-09-07T02:52:59;22.60;99.90
51908;DHT22;39320;53.214;6.556;2023-09-07T02:55:26;22.60;99.90
51908;DHT22;39320;53.214;6.556;2023-09-07T02:57:52;22.60;99.90
51908;DHT22;39320;53.214;6.556;2023-09-07T03:00:18;22.50;99.90
51908;DHT22;39320;53.214;6.556;2023-09-07T03:02:44;22.60;99.90
51908;DHT22;39320;53.214;6.556;2023-09-07T03:05:10;22.60;99.90
51908;DHT22;39320;53.214;6.556;2023-09-07T03:07:35;22.60;99.90
51908;DHT22;39320;53.214;6.556;2023-09-07T03:10:01;22.50;99.90
51908;DHT22;39320;53.214;6.556;2023-09-07T03:12:27;22.50;99.90
51908;DHT22;39320;53.214;6.556;2023-09-07T03:14:53;22.50;99.90
51908;DHT22;39320;53.214;6.556;2023-09-07T03:17:19;22.50;99.90
51908;DHT22;39320;53.214;6.556;2023-09-07T03:19:48;22.50;99.90
51908;DHT22;39320;53.214;6.556;2023-09-07T03:22:14;22.50;99.90
51908;DHT22;39320;53.214;6.556;2023-09-07T03:24:40;22.50;99.90
51908;DHT22;39320;53.214;6.556;2023-09-07T03:27:06;22.50;99.90
51908;DHT22;39320;53.214;6.556;2023-09-07T03:29:32;22.50;99.90
51908;DHT22;39320;53.214;6.556;2023-09-07T03:31:59;22.40;99.90
51908;DHT22;39320;53.214;6.556;2023-09-07T03:34:26;22.40;99.90
51908;DHT22;39320;53.214;6.556;2023-09-07T03:36:52;22.30;99.90
51908;DHT22;39320;53.214;6.556;2023-09-07T03:39:17;22.30;99.90
51908;DHT22;39320;53.214;6.556;2023-09-07T03:41:49;22.20;99.90
51908;DHT22;39320;53.214;6.556;2023-09-07T03:44:15;22.20;99.90
51908;DHT22;39320;53.214;6.556;2023-09-07T03:46:41;22.20;99.90
51908;DHT22;39320;53.214;6.556;2023-09-07T03:49:07;22.20;99.90
51908;DHT22;39320;53.214;6.556;2023-09-07T03:51:33;22.20;99.90
51908;DHT22;39320;53.214;6.556;2023-09-07T03:53:58;22.10;99.90
51908;DHT22;39320;53.214;6.556;2023-09-07T03:56:25;22.20;99.90
51908;DHT22;39320;53.214;6.556;2023-09-07T03:58:51;22.10;99.90
51908;DHT22;39320;53.214;6.556;2023-09-07T04:01:17;22.10;99.90
51908;DHT22;39320;53.214;6.556;2023-09-07T04:03:43;22.20;99.90
51908;DHT22;39320;53.214;6.556;2023-09-07T04:06:08;22.20;99.90
51908;DHT22;39320;53.214;6.556;2023-09-07T04:08:34;22.20;99.90
51908;DHT22;39320;53.214;6.556;2023-09-07T04:11:04;22.20;99.90
51908;DHT22;39320;53.214;6.556;2023-09-07T04:13:31;22.20;99.90
51908;DHT22;39320;53.214;6.556;2023-09-07T04:15:57;22.10;99.90
51908;DHT22;39320;53.214;6.556;2023-09-07T04:18:24;22.10;99.90
51908;DHT22;39320;53.214;6.556;2023-09-07T04:20:50;22.10;99.90
51908;DHT22;39320;53.214;6.556;2023-09-07T04:23:16;22.00;99.90
51908;DHT22;39320;53.214;6.556;2023-09-07T04:25:41;22.00;99.90
51908;DHT22;39320;53.214;6.556;2023-09-07T04:28:07;22.10;99.90
51908;DHT22;39320;53.214;6.556;2023-09-07T04:30:37;22.00;99.90
51908;DHT22;39320;53.214;6.556;2023-09-07T04:33:03;22.10;99.90
51908;DHT22;39320;53.214;6.556;2023-09-07T04:35:30;22.00;99.90
51908;DHT22;39320;53.214;6.556;2023-09-07T04:37:56;22.00;99.90
51908;DHT22;39320;53.214;6.556;2023-09-07T04:40:22;22.00;99.90
51908;DHT22;39320;53.214;6.556;2023-09-07T04:42:48;22.00;99.90
51908;DHT22;39320;53.214;6.556;2023-09-07T04:45:14;22.00;99.90
51908;DHT22;39320;53.214;6.556;2023-09-07T04:47:40;22.00;99.90
51908;DHT22;39320;53.214;6.556;2023-09-07T04:50:06;21.90;99.90
51908;DHT22;39320;53.214;6.556;2023-09-07T04:52:32;21.90;99.90
51908;DHT22;39320;53.214;6.556;2023-09-07T04:55:00;21.90;99.90
51908;DHT22;39320;53.214;6.556;2023-09-07T04:57:26;21.90;99.90
51908;DHT22;39320;53.214;6.556;2023-09-07T04:59:51;21.90;99.90
51908;DHT22;39320;53.214;6.556;2023-09-07T05:02:17;21.90;99.90
51908;DHT22;39320;53.214;6.556;2023-09-07T05:04:44;21.90;99.90
51908;DHT22;39320;53.214;6.556;2023-09-07T05:07:10;21.90;99.90
51908;DHT22;39320;53.214;6.556;2023-09-07T05:09:36;22.00;99.90
51908;DHT22;39320;53.214;6.556;2023-09-07T05:12:02;22.00;99.90
51908;DHT22;39320;53.214;6.556;2023-09-07T05:14:28;22.00;99.90
51908;DHT22;39320;53.214;6.556;2023-09-07T05:16:55;22.00;99.90
51908;DHT22;39320;53.214;6.556;2023-09-07T05:19:22;21.90;99.90
51908;DHT22;39320;53.214;6.556;2023-09-07T05:21:48;21.90;99.90
51908;DHT22;39320;53.214;6.556;2023-09-07T05:24:14;21.90;99.90
51908;DHT22;39320;53.214;6.556;2023-09-07T05:26:43;21.90;99.90
51908;DHT22;39320;53.214;6.556;2023-09-07T05:29:10;21.90;99.90
51908;DHT22;39320;53.214;6.556;2023-09-07T05:32:05;21.90;99.90
51908;DHT22;39320;53.214;6.556;2023-09-07T05:34:32;21.80;99.90
51908;DHT22;39320;53.214;6.556;2023-09-07T05:36:57;21.70;99.90
51908;DHT22;39320;53.214;6.556;2023-09-07T05:39:23;21.80;99.90
51908;DHT22;39320;53.214;6.556;2023-09-07T05:41:49;21.70;99.90
51908;DHT22;39320;53.214;6.556;2023-09-07T05:44:15;21.70;99.90
51908;DHT22;39320;53.214;6.556;2023-09-07T05:46:41;21.70;99.90
51908;DHT22;39320;53.214;6.556;2023-09-07T05:49:06;21.80;99.90
51908;DHT22;39320;53.214;6.556;2023-09-07T05:51:32;21.70;99.90
51908;DHT22;39320;53.214;6.556;2023-09-07T05:53:58;21.70;99.90
51908;DHT22;39320;53.214;6.556;2023-09-07T05:56:24;21.70;99.90
51908;DHT22;39320;53.214;6.556;2023-09-07T05:58:49;21.70;99.90
51908;DHT22;39320;53.214;6.556;2023-09-07T06:01:15;21.70;99.90
51908;DHT22;39320;53.214;6.556;2023-09-07T06:03:41;21.80;99.90
51908;DHT22;39320;53.214;6.556;2023-09-07T06:06:07;21.70;99.90
51908;DHT22;39320;53.214;6.556;2023-09-07T06:08:33;21.80;99.90
51908;DHT22;39320;53.214;6.556;2023-09-07T06:10:58;21.80;99.90
51908;DHT22;39320;53.214;6.556;2023-09-07T06:13:25;21.80;99.90
51908;DHT22;39320;53.214;6.556;2023-09-07T06:15:51;21.80;99.90
51908;DHT22;39320;53.214;6.556;2023-09-07T06:18:17;21.80;99.90
51908;DHT22;39320;53.214;6.556;2023-09-07T06:20:43;21.80;99.90
51908;DHT22;39320;53.214;6.556;2023-09-07T06:23:08;21.80;99.90
51908;DHT22;39320;53.214;6.556;2023-09-07T06:25:34;21.80;99.90
51908;DHT22;39320;53.214;6.556;2023-09-07T06:28:00;21.80;99.90
51908;DHT22;39320;53.214;6.556;2023-09-07T06:30:26;21.90;99.90
51908;DHT22;39320;53.214;6.556;2023-09-07T06:32:51;21.90;99.90
51908;DHT22;39320;53.214;6.556;2023-09-07T06:35:18;21.90;99.90
51908;DHT22;39320;53.214;6.556;2023-09-07T06:37:44;22.00;99.90
51908;DHT22;39320;53.214;6.556;2023-09-07T06:40:10;22.00;99.90
51908;DHT22;39320;53.214;6.556;2023-09-07T06:42:36;22.00;99.90
51908;DHT22;39320;53.214;6.556;2023-09-07T06:45:03;22.10;99.90
51908;DHT22;39320;53.214;6.556;2023-09-07T06:47:29;22.10;99.90
51908;DHT22;39320;53.214;6.556;2023-09-07T06:49:55;22.20;99.90
51908;DHT22;39320;53.214;6.556;2023-09-07T06:52:20;22.30;99.90
51908;DHT22;39320;53.214;6.556;2023-09-07T06:54:46;22.30;99.90
51908;DHT22;39320;53.214;6.556;2023-09-07T06:57:12;22.40;99.90
51908;DHT22;39320;53.214;6.556;2023-09-07T06:59:38;22.40;99.90
51908;DHT22;39320;53.214;6.556;2023-09-07T07:02:03;22.50;99.90
51908;DHT22;39320;53.214;6.556;2023-09-07T07:04:30;22.60;99.90
51908;DHT22;39320;53.214;6.556;2023-09-07T07:06:56;22.60;99.90
51908;DHT22;39320;53.214;6.556;2023-09-07T07:09:21;22.70;99.90
51908;DHT22;39320;53.214;6.556;2023-09-07T07:11:47;22.80;99.90
51908;DHT22;39320;53.214;6.556;2023-09-07T07:14:13;22.80;99.90
51908;DHT22;39320;53.214;6.556;2023-09-07T07:16:39;22.90;99.90
51908;DHT22;39320;53.214;6.556;2023-09-07T07:19:05;23.00;99.90
51908;DHT22;39320;53.214;6.556;2023-09-07T07:21:31;23.10;99.90
51908;DHT22;39320;53.214;6.556;2023-09-07T07:23:57;23.10;99.90
51908;DHT22;39320;53.214;6.556;2023-09-07T07:26:22;23.20;99.90
51908;DHT22;39320;53.214;6.556;2023-09-07T07:28:48;23.30;99.90
51908;DHT22;39320;53.214;6.556;2023-09-07T07:31:14;23.40;99.90
51908;DHT22;39320;53.214;6.556;2023-09-07T07:33:39;23.40;99.90
51908;DHT22;39320;53.214;6.556;2023-09-07T07:36:05;23.50;99.90
51908;DHT22;39320;53.214;6.556;2023-09-07T07:38:31;23.50;99.90
51908;DHT22;39320;53.214;6.556;2023-09-07T07:40:57;23.50;99.90
51908;DHT22;39320;53.214;6.556;2023-09-07T07:43:23;23.50;99.90
51908;DHT22;39320;53.214;6.556;2023-09-07T07:45:49;23.60;99.90
51908;DHT22;39320;53.214;6.556;2023-09-07T07:48:14;23.60;99.90
51908;DHT22;39320;53.214;6.556;2023-09-07T07:50:40;23.60;99.90
51908;DHT22;39320;53.214;6.556;2023-09-07T07:53:07;23.60;99.90
51908;DHT22;39320;53.214;6.556;2023-09-07T07:55:37;23.60;99.90
51908;DHT22;39320;53.214;6.556;2023-09-07T07:58:08;23.60;99.90
51908;DHT22;39320;53.214;6.556;2023-09-07T08:00:34;23.60;99.90
51908;DHT22;39320;53.214;6.556;2023-09-07T08:03:01;23.70;99.90
51908;DHT22;39320;53.214;6.556;2023-09-07T08:05:33;23.70;99.90
51908;DHT22;39320;53.214;6.556;2023-09-07T08:08:00;23.60;99.90
51908;DHT22;39320;53.214;6.556;2023-09-07T08:10:26;23.70;99.90
51908;DHT22;39320;53.214;6.556;2023-09-07T08:12:55;23.70;99.90
51908;DHT22;39320;53.214;6.556;2023-09-07T08:15:22;23.70;99.90
51908;DHT22;39320;53.214;6.556;2023-09-07T08:17:50;23.70;99.90
51908;DHT22;39320;53.214;6.556;2023-09-07T08:20:16;23.70;99.90
51908;DHT22;39320;53.214;6.556;2023-09-07T08:22:43;23.70;99.90
51908;DHT22;39320;53.214;6.556;2023-09-07T08:25:11;23.70;99.90
51908;DHT22;39320;53.214;6.556;2023-09-07T08:27:42;23.80;99.90
51908;DHT22;39320;53.214;6.556;2023-09-07T08:30:13;23.80;99.90
51908;DHT22;39320;53.214;6.556;2023-09-07T08:32:41;23.80;99.90
51908;DHT22;39320;53.214;6.556;2023-09-07T08:35:09;23.80;99.90
51908;DHT22;39320;53.214;6.556;2023-09-07T08:37:38;23.80;99.90
51908;DHT22;39320;53.214;6.556;2023-09-07T08:40:04;23.90;99.90
51908;DHT22;39320;53.214;6.556;2023-09-07T08:42:33;23.90;99.90
51908;DHT22;39320;53.214;6.556;2023-09-07T08:45:00;23.90;99.90
51908;DHT22;39320;53.214;6.556;2023-09-07T08:47:28;23.90;99.90
51908;DHT22;39320;53.214;6.556;2023-09-07T08:49:57;23.90;99.90
51908;DHT22;39320;53.214;6.556;2023-09-07T08:52:24;23.90;99.90
51908;DHT22;39320;53.214;6.556;2023-09-07T08:54:53;23.90;99.90
51908;DHT22;39320;53.214;6.556;2023-09-07T08:57:21;23.90;99.90
51908;DHT22;39320;53.214;6.556;2023-09-07T08:59:49;23.90;99.90
51908;DHT22;39320;53.214;6.556;2023-09-07T09:02:14;23.90;99.90
51908;DHT22;39320;53.214;6.556;2023-09-07T09:04:42;23.90;99.90
51908;DHT22;39320;53.214;6.556;2023-09-07T09:07:08;23.90;99.90
51908;DHT22;39320;53.214;6.556;2023-09-07T09:09:34;23.90;99.90
51908;DHT22;39320;53.214;6.556;2023-09-07T09:12:09;23.90;99.90
51908;DHT22;39320;53.214;6.556;2023-09-07T09:14:35;24.00;99.90
51908;DHT22;39320;53.214;6.556;2023-09-07T09:17:01;23.90;99.90
51908;DHT22;39320;53.214;6.556;2023-09-07T09:19:34;23.90;99.90
51908;DHT22;39320;53.214;6.556;2023-09-07T09:22:00;24.00;99.90
51908;DHT22;39320;53.214;6.556;2023-09-07T09:24:26;24.00;99.90
51908;DHT22;39320;53.214;6.556;2023-09-07T09:26:52;24.00;99.90
51908;DHT22;39320;53.214;6.556;2023-09-07T09:29:22;24.00;99.90
51908;DHT22;39320;53.214;6.556;2023-09-07T09:31:49;24.00;99.90
51908;DHT22;39320;53.214;6.556;2023-09-07T09:34:15;24.00;99.90
51908;DHT22;39320;53.214;6.556;2023-09-07T09:36:42;24.00;99.90
51908;DHT22;39320;53.214;6.556;2023-09-07T09:39:09;24.00;99.90
51908;DHT22;39320;53.214;6.556;2023-09-07T09:41:35;24.00;99.90
51908;DHT22;39320;53.214;6.556;2023-09-07T09:44:03;24.00;99.90
51908;DHT22;39320;53.214;6.556;2023-09-07T09:46:31;24.10;99.90
51908;DHT22;39320;53.214;6.556;2023-09-07T09:48:58;24.10;99.90
51908;DHT22;39320;53.214;6.556;2023-09-07T09:51:24;24.10;99.90
51908;DHT22;39320;53.214;6.556;2023-09-07T09:53:51;24.10;99.90
51908;DHT22;39320;53.214;6.556;2023-09-07T09:56:17;24.10;99.90
51908;DHT22;39320;53.214;6.556;2023-09-07T09:58:43;24.10;99.90
51908;DHT22;39320;53.214;6.556;2023-09-07T10:01:09;24.10;99.90
51908;DHT22;39320;53.214;6.556;2023-09-07T10:03:45;24.10;99.90
51908;DHT22;39320;53.214;6.556;2023-09-07T10:06:17;24.20;99.90
51908;DHT22;39320;53.214;6.556;2023-09-07T10:09:13;24.20;99.90
51908;DHT22;39320;53.214;6.556;2023-09-07T10:11:42;24.10;99.90
51908;DHT22;39320;53.214;6.556;2023-09-07T10:14:08;24.20;99.90
51908;DHT22;39320;53.214;6.556;2023-09-07T10:16:42;24.20;99.90
51908;DHT22;39320;53.214;6.556;2023-09-07T10:19:19;24.20;99.90
51908;DHT22;39320;53.214;6.556;2023-09-07T10:21:46;24.20;99.90
51908;DHT22;39320;53.214;6.556;2023-09-07T10:24:22;24.20;99.90
51908;DHT22;39320;53.214;6.556;2023-09-07T10:27:09;24.30;99.90
51908;DHT22;39320;53.214;6.556;2023-09-07T10:29:50;24.30;99.90
51908;DHT22;39320;53.214;6.556;2023-09-07T10:32:19;24.30;99.90
51908;DHT22;39320;53.214;6.556;2023-09-07T10:34:45;24.30;99.90
51908;DHT22;39320;53.214;6.556;2023-09-07T10:37:12;24.30;99.90
51908;DHT22;39320;53.214;6.556;2023-09-07T10:39:39;24.40;99.90
51908;DHT22;39320;53.214;6.556;2023-09-07T10:42:05;24.40;99.90
51908;DHT22;39320;53.214;6.556;2023-09-07T10:44:31;24.40;99.90
51908;DHT22;39320;53.214;6.556;2023-09-07T10:46:57;24.40;99.90
51908;DHT22;39320;53.214;6.556;2023-09-07T10:49:24;24.40;99.90
51908;DHT22;39320;53.214;6.556;2023-09-07T10:51:50;24.40;99.90
51908;DHT22;39320;53.214;6.556;2023-09-07T10:54:25;24.50;99.90
51908;DHT22;39320;53.214;6.556;2023-09-07T10:56:51;24.50;99.90
51908;DHT22;39320;53.214;6.556;2023-09-07T10:59:17;24.50;99.90
51908;DHT22;39320;53.214;6.556;2023-09-07T11:01:49;24.50;99.90
51908;DHT22;39320;53.214;6.556;2023-09-07T11:04:16;24.50;99.90
51908;DHT22;39320;53.214;6.556;2023-09-07T11:06:43;24.50;99.90
51908;DHT22;39320;53.214;6.556;2023-09-07T11:09:09;24.60;99.90
51908;DHT22;39320;53.214;6.556;2023-09-07T11:11:36;24.60;99.90
51908;DHT22;39320;53.214;6.556;2023-09-07T11:14:05;24.60;99.90
51908;DHT22;39320;53.214;6.556;2023-09-07T11:16:33;24.60;99.90
51908;DHT22;39320;53.214;6.556;2023-09-07T11:19:04;24.70;99.90
51908;DHT22;39320;53.214;6.556;2023-09-07T11:21:30;24.70;99.90
51908;DHT22;39320;53.214;6.556;2023-09-07T11:23:58;24.70;99.90
51908;DHT22;39320;53.214;6.556;2023-09-07T11:26:24;24.80;99.90
51908;DHT22;39320;53.214;6.556;2023-09-07T11:28:50;24.80;99.90
51908;DHT22;39320;53.214;6.556;2023-09-07T11:31:21;24.90;99.90
51908;DHT22;39320;53.214;6.556;2023-09-07T11:33:48;25.00;99.90
51908;DHT22;39320;53.214;6.556;2023-09-07T11:36:14;25.00;99.90
51908;DHT22;39320;53.214;6.556;2023-09-07T11:38:43;25.10;99.90
51908;DHT22;39320;53.214;6.556;2023-09-07T11:41:10;25.10;99.90
51908;DHT22;39320;53.214;6.556;2023-09-07T11:43:36;25.10;99.90
51908;DHT22;39320;53.214;6.556;2023-09-07T11:46:03;25.20;99.90
51908;DHT22;39320;53.214;6.556;2023-09-07T11:48:29;25.20;99.90
51908;DHT22;39320;53.214;6.556;2023-09-07T11:50:55;25.20;99.90
51908;DHT22;39320;53.214;6.556;2023-09-07T11:53:21;25.20;99.90
51908;DHT22;39320;53.214;6.556;2023-09-07T11:55:47;25.30;99.90
51908;DHT22;39320;53.214;6.556;2023-09-07T11:58:15;25.30;99.90
51908;DHT22;39320;53.214;6.556;2023-09-07T12:00:40;25.30;99.90
51908;DHT22;39320;53.214;6.556;2023-09-07T12:03:07;25.30;99.90
51908;DHT22;39320;53.214;6.556;2023-09-07T12:05:33;25.40;99.90
51908;DHT22;39320;53.214;6.556;2023-09-07T12:07:59;25.40;99.90
51908;DHT22;39320;53.214;6.556;2023-09-07T12:10:25;25.40;99.90
51908;DHT22;39320;53.214;6.556;2023-09-07T12:12:51;25.50;99.90
51908;DHT22;39320;53.214;6.556;2023-09-07T12:15:17;25.50;99.90
51908;DHT22;39320;53.214;6.556;2023-09-07T12:17:42;25.60;99.90
51908;DHT22;39320;53.214;6.556;2023-09-07T12:20:09;25.60;99.90
51908;DHT22;39320;53.214;6.556;2023-09-07T12:22:36;25.70;99.90
51908;DHT22;39320;53.214;6.556;2023-09-07T12:25:06;25.90;99.90
51908;DHT22;39320;53.214;6.556;2023-09-07T12:27:33;26.10;99.90
51908;DHT22;39320;53.214;6.556;2023-09-07T12:30:00;26.40;99.90
51908;DHT22;39320;53.214;6.556;2023-09-07T12:32:26;26.60;99.90
51908;DHT22;39320;53.214;6.556;2023-09-07T12:34:51;26.80;99.90
51908;DHT22;39320;53.214;6.556;2023-09-07T12:37:19;26.90;99.60
51908;DHT22;39320;53.214;6.556;2023-09-07T12:39:51;27.10;99.10
51908;DHT22;39320;53.214;6.556;2023-09-07T12:42:18;27.20;98.60
51908;DHT22;39320;53.214;6.556;2023-09-07T12:44:44;27.30;98.40
51908;DHT22;39320;53.214;6.556;2023-09-07T12:47:10;27.40;98.40
51908;DHT22;39320;53.214;6.556;2023-09-07T12:49:36;27.50;97.70
51908;DHT22;39320;53.214;6.556;2023-09-07T12:52:01;27.50;97.50
51908;DHT22;39320;53.214;6.556;2023-09-07T12:54:34;27.60;98.00
51908;DHT22;39320;53.214;6.556;2023-09-07T12:57:01;27.70;97.40
51908;DHT22;39320;53.214;6.556;2023-09-07T12:59:28;27.60;97.10
51908;DHT22;39320;53.214;6.556;2023-09-07T13:01:53;27.70;97.10
51908;DHT22;39320;53.214;6.556;2023-09-07T13:04:21;27.70;96.90
51908;DHT22;39320;53.214;6.556;2023-09-07T13:06:47;27.80;96.70
51908;DHT22;39320;53.214;6.556;2023-09-07T13:09:13;27.80;96.20
51908;DHT22;39320;53.214;6.556;2023-09-07T13:11:39;27.90;95.50
51908;DHT22;39320;53.214;6.556;2023-09-07T13:14:07;27.90;95.60
51908;DHT22;39320;53.214;6.556;2023-09-07T13:16:34;27.90;95.50
51908;DHT22;39320;53.214;6.556;2023-09-07T13:18:59;28.00;95.10
51908;DHT22;39320;53.214;6.556;2023-09-07T13:21:25;28.10;94.80
51908;DHT22;39320;53.214;6.556;2023-09-07T13:23:51;28.10;94.30
51908;DHT22;39320;53.214;6.556;2023-09-07T13:26:17;28.20;94.40
51908;DHT22;39320;53.214;6.556;2023-09-07T13:28:42;28.30;94.50
51908;DHT22;39320;53.214;6.556;2023-09-07T13:31:08;28.30;94.30
51908;DHT22;39320;53.214;6.556;2023-09-07T13:33:34;28.30;94.20
51908;DHT22;39320;53.214;6.556;2023-09-07T13:35:59;28.30;93.70
51908;DHT22;39320;53.214;6.556;2023-09-07T13:38:26;28.40;93.80
51908;DHT22;39320;53.214;6.556;2023-09-07T13:40:52;28.40;93.90
51908;DHT22;39320;53.214;6.556;2023-09-07T13:43:18;28.40;93.20
51908;DHT22;39320;53.214;6.556;2023-09-07T13:45:44;28.50;91.90
51908;DHT22;39320;53.214;6.556;2023-09-07T13:48:09;28.60;91.50
51908;DHT22;39320;53.214;6.556;2023-09-07T13:50:35;28.60;90.70
51908;DHT22;39320;53.214;6.556;2023-09-07T13:53:01;28.60;90.20
51908;DHT22;39320;53.214;6.556;2023-09-07T13:55:27;28.70;89.50
51908;DHT22;39320;53.214;6.556;2023-09-07T13:57:53;28.80;88.60
51908;DHT22;39320;53.214;6.556;2023-09-07T14:00:19;28.80;87.70
51908;DHT22;39320;53.214;6.556;2023-09-07T14:02:45;28.80;87.00
51908;DHT22;39320;53.214;6.556;2023-09-07T14:05:10;28.80;86.10
51908;DHT22;39320;53.214;6.556;2023-09-07T14:07:36;28.90;85.90
51908;DHT22;39320;53.214;6.556;2023-09-07T14:10:02;28.90;84.30
51908;DHT22;39320;53.214;6.556;2023-09-07T14:12:28;29.00;83.30
51908;DHT22;39320;53.214;6.556;2023-09-07T14:14:54;29.00;82.70
51908;DHT22;39320;53.214;6.556;2023-09-07T14:17:20;29.00;82.20
51908;DHT22;39320;53.214;6.556;2023-09-07T14:19:45;29.00;81.40
51908;DHT22;39320;53.214;6.556;2023-09-07T14:22:12;29.10;81.90
51908;DHT22;39320;53.214;6.556;2023-09-07T14:24:38;29.10;81.90
51908;DHT22;39320;53.214;6.556;2023-09-07T14:27:04;29.20;81.30
51908;DHT22;39320;53.214;6.556;2023-09-07T14:29:30;29.20;81.20
51908;DHT22;39320;53.214;6.556;2023-09-07T14:31:56;29.20;80.70
51908;DHT22;39320;53.214;6.556;2023-09-07T14:34:22;29.30;81.10
51908;DHT22;39320;53.214;6.556;2023-09-07T14:36:47;29.30;81.70
51908;DHT22;39320;53.214;6.556;2023-09-07T14:39:13;29.30;81.90
51908;DHT22;39320;53.214;6.556;2023-09-07T14:41:39;29.30;81.70
51908;DHT22;39320;53.214;6.556;2023-09-07T14:44:06;29.40;80.70
51908;DHT22;39320;53.214;6.556;2023-09-07T14:46:32;29.40;81.10
51908;DHT22;39320;53.214;6.556;2023-09-07T14:48:58;29.50;81.50
51908;DHT22;39320;53.214;6.556;2023-09-07T14:51:24;29.40;81.70
51908;DHT22;39320;53.214;6.556;2023-09-07T14:53:49;29.50;81.70
51908;DHT22;39320;53.214;6.556;2023-09-07T14:56:15;29.50;80.90
51908;DHT22;39320;53.214;6.556;2023-09-07T14:58:41;29.50;81.30
51908;DHT22;39320;53.214;6.556;2023-09-07T15:01:07;29.60;81.10
51908;DHT22;39320;53.214;6.556;2023-09-07T15:03:33;29.60;80.90
51908;DHT22;39320;53.214;6.556;2023-09-07T15:05:59;29.70;80.00
51908;DHT22;39320;53.214;6.556;2023-09-07T15:08:25;29.70;80.40
51908;DHT22;39320;53.214;6.556;2023-09-07T15:10:51;29.80;80.50
51908;DHT22;39320;53.214;6.556;2023-09-07T15:13:16;29.80;79.70
51908;DHT22;39320;53.214;6.556;2023-09-07T15:15:42;29.80;79.90
51908;DHT22;39320;53.214;6.556;2023-09-07T15:18:08;29.80;80.40
51908;DHT22;39320;53.214;6.556;2023-09-07T15:20:35;29.90;81.30
51908;DHT22;39320;53.214;6.556;2023-09-07T15:23:01;29.90;81.70
51908;DHT22;39320;53.214;6.556;2023-09-07T15:25:27;30.00;80.70
51908;DHT22;39320;53.214;6.556;2023-09-07T15:27:53;30.00;80.60